sensor_id;sensor_type;location;lat;lon;timestamp;P1;durP1;ratioP1;P2;durP2;ratioP2
65182;SDS011;51771;51.068;-1.780;2023-08-30T00:01:18;6.13;;;1.53;;
65182;SDS011;51771;51.068;-1.780;2023-08-30T00:03:43;4.57;;;1.30;;
65182;SDS011;51771;51.068;-1.780;2023-08-30T00:06:08;4.90;;;1.50;;
65182;SDS011;51771;51.068;-1.780;2023-08-30T00:08:34;4.63;;;1.48;;
65182;SDS011;51771;51.068;-1.780;2023-08-30T00:10:59;5.07;;;1.80;;
65182;SDS011;51771;51.068;-1.780;2023-08-30T00:13:25;5.20;;;1.45;;
65182;SDS011;51771;51.068;-1.780;2023-08-30T00:15:50;2.92;;;1.10;;
65182;SDS011;51771;51.068;-1.780;2023-08-30T00:18:15;3.57;;;1.30;;
65182;SDS011;51771;51.068;-1.780;2023-08-30T00:20:41;3.00;;;1.05;;
65182;SDS011;51771;51.068;-1.780;2023-08-30T00:23:06;7.10;;;1.52;;
65182;SDS011;51771;51.068;-1.780;2023-08-30T00:25:31;4.70;;;1.40;;
65182;SDS011;51771;51.068;-1.780;2023-08-30T00:27:56;3.75;;;1.10;;
65182;SDS011;51771;51.068;-1.780;2023-08-30T00:30:22;6.37;;;1.50;;
65182;SDS011;51771;51.068;-1.780;2023-08-30T00:32:47;6.80;;;1.02;;
65182;SDS011;51771;51.068;-1.780;2023-08-30T00:35:12;4.70;;;1.10;;
65182;SDS011;51771;51.068;-1.780;2023-08-30T00:37:37;4.13;;;1.20;;
65182;SDS011;51771;51.068;-1.780;2023-08-30T00:40:03;6.17;;;1.50;;
65182;SDS011;51771;51.068;-1.780;2023-08-30T00:42:28;7.75;;;1.40;;
65182;SDS011;51771;51.068;-1.780;2023-08-30T00:44:53;4.32;;;1.42;;
65182;SDS011;51771;51.068;-1.780;2023-08-30T00:47:19;4.68;;;1.25;;
65182;SDS011;51771;51.068;-1.780;2023-08-30T00:49:44;4.53;;;1.35;;
65182;SDS011;51771;51.068;-1.780;2023-08-30T00:52:09;4.15;;;1.13;;
65182;SDS011;51771;51.068;-1.780;2023-08-30T00:54:35;3.08;;;1.30;;
65182;SDS011;51771;51.068;-1.780;2023-08-30T00:57:01;4.95;;;1.58;;
65182;SDS011;51771;51.068;-1.780;2023-08-30T00:59:26;3.72;;;1.33;;
65182;SDS011;51771;51.068;-1.780;2023-08-30T01:01:52;8.70;;;1.80;;
65182;SDS011;51771;51.068;-1.780;2023-08-30T01:04:18;4.00;;;1.20;;
65182;SDS011;51771;51.068;-1.780;2023-08-30T01:06:44;10.05;;;2.17;;
65182;SDS011;51771;51.068;-1.780;2023-08-30T01:09:09;4.57;;;1.70;;
65182;SDS011;51771;51.068;-1.780;2023-08-30T01:14:07;7.28;;;1.58;;
65182;SDS011;51771;51.068;-1.780;2023-08-30T01:16:34;3.47;;;0.98;;
65182;SDS011;51771;51.068;-1.780;2023-08-30T01:19:00;3.65;;;0.98;;
65182;SDS011;51771;51.068;-1.780;2023-08-30T01:21:37;4.60;;;1.77;;
65182;SDS011;51771;51.068;-1.780;2023-08-30T01:24:05;5.50;;;1.45;;
65182;SDS011;51771;51.068;-1.780;2023-08-30T01:26:42;5.28;;;1.25;;
65182;SDS011;51771;51.068;-1.780;2023-08-30T01:29:10;4.90;;;1.40;;
65182;SDS011;51771;51.068;-1.780;2023-08-30T01:31:36;6.25;;;1.65;;
65182;SDS011;51771;51.068;-1.780;2023-08-30T01:34:03;6.28;;;1.05;;
65182;SDS011;51771;51.068;-1.780;2023-08-30T01:36:29;7.45;;;1.58;;
65182;SDS011;51771;51.068;-1.780;2023-08-30T01:38:54;4.38;;;1.33;;
65182;SDS011;51771;51.068;-1.780;2023-08-30T01:41:20;6.28;;;1.45;;
65182;SDS011;51771;51.068;-1.780;2023-08-30T01:43:48;3.92;;;1.30;;
65182;SDS011;51771;51.068;-1.780;2023-08-30T01:46:14;3.42;;;1.38;;
65182;SDS011;51771;51.068;-1.780;2023-08-30T01:48:40;7.85;;;1.80;;
65182;SDS011;51771;51.068;-1.780;2023-08-30T01:51:06;4.30;;;1.20;;
65182;SDS011;51771;51.068;-1.780;2023-08-30T01:53:32;6.40;;;1.42;;
65182;SDS011;51771;51.068;-1.780;2023-08-30T01:55:57;7.55;;;1.42;;
65182;SDS011;51771;51.068;-1.780;2023-08-30T01:58:23;3.53;;;1.20;;
65182;SDS011;51771;51.068;-1.780;2023-08-30T02:00:48;4.03;;;1.30;;
65182;SDS011;51771;51.068;-1.780;2023-08-30T02:03:13;6.37;;;1.40;;
65182;SDS011;51771;51.068;-1.780;2023-08-30T02:08:24;5.47;;;1.35;;
65182;SDS011;51771;51.068;-1.780;2023-08-30T02:10:51;4.35;;;1.13;;
65182;SDS011;51771;51.068;-1.780;2023-08-30T02:13:20;3.63;;;1.40;;
65182;SDS011;51771;51.068;-1.780;2023-08-30T02:15:46;4.15;;;1.30;;
65182;SDS011;51771;51.068;-1.780;2023-08-30T02:18:12;7.00;;;1.60;;
65182;SDS011;51771;51.068;-1.780;2023-08-30T02:20:37;3.50;;;1.23;;
65182;SDS011;51771;51.068;-1.780;2023-08-30T02:23:03;3.00;;;1.00;;
65182;SDS011;51771;51.068;-1.780;2023-08-30T02:25:28;4.55;;;1.48;;
65182;SDS011;51771;51.068;-1.780;2023-08-30T02:27:53;4.37;;;1.17;;
65182;SDS011;51771;51.068;-1.780;2023-08-30T02:30:18;6.37;;;1.43;;
65182;SDS011;51771;51.068;-1.780;2023-08-30T02:32:44;4.82;;;1.10;;
65182;SDS011;51771;51.068;-1.780;2023-08-30T02:35:09;2.87;;;1.00;;
65182;SDS011;51771;51.068;-1.780;2023-08-30T02:37:34;7.43;;;1.60;;
65182;SDS011;51771;51.068;-1.780;2023-08-30T02:39:59;1.98;;;0.85;;
65182;SDS011;51771;51.068;-1.780;2023-08-30T02:42:25;4.75;;;1.20;;
65182;SDS011;51771;51.068;-1.780;2023-08-30T02:44:51;6.78;;;1.58;;
65182;SDS011;51771;51.068;-1.780;2023-08-30T02:47:16;3.38;;;1.20;;
65182;SDS011;51771;51.068;-1.780;2023-08-30T02:49:41;4.10;;;1.50;;
65182;SDS011;51771;51.068;-1.780;2023-08-30T02:52:07;5.07;;;1.57;;
65182;SDS011;51771;51.068;-1.780;2023-08-30T02:54:32;8.23;;;2.03;;
65182;SDS011;51771;51.068;-1.780;2023-08-30T02:56:57;4.67;;;1.37;;
65182;SDS011;51771;51.068;-1.780;2023-08-30T02:59:23;3.75;;;1.15;;
65182;SDS011;51771;51.068;-1.780;2023-08-30T03:01:48;3.37;;;1.20;;
65182;SDS011;51771;51.068;-1.780;2023-08-30T03:04:13;6.40;;;2.03;;
65182;SDS011;51771;51.068;-1.780;2023-08-30T03:06:39;4.25;;;1.38;;
65182;SDS011;51771;51.068;-1.780;2023-08-30T03:09:04;2.28;;;0.93;;
65182;SDS011;51771;51.068;-1.780;2023-08-30T03:11:31;4.00;;;1.30;;
65182;SDS011;51771;51.068;-1.780;2023-08-30T03:13:56;8.48;;;1.88;;
65182;SDS011;51771;51.068;-1.780;2023-08-30T03:16:22;6.50;;;1.80;;
65182;SDS011;51771;51.068;-1.780;2023-08-30T03:18:47;7.30;;;1.70;;
65182;SDS011;51771;51.068;-1.780;2023-08-30T03:21:12;4.75;;;1.40;;
65182;SDS011;51771;51.068;-1.780;2023-08-30T03:23:38;3.08;;;1.15;;
65182;SDS011;51771;51.068;-1.780;2023-08-30T03:26:07;7.20;;;1.50;;
65182;SDS011;51771;51.068;-1.780;2023-08-30T03:28:34;11.90;;;1.50;;
65182;SDS011;51771;51.068;-1.780;2023-08-30T03:30:59;6.17;;;1.40;;
65182;SDS011;51771;51.068;-1.780;2023-08-30T03:33:24;5.60;;;1.50;;
65182;SDS011;51771;51.068;-1.780;2023-08-30T03:35:49;4.32;;;1.20;;
65182;SDS011;51771;51.068;-1.780;2023-08-30T03:38:15;4.60;;;1.60;;
65182;SDS011;51771;51.068;-1.780;2023-08-30T03:40:40;4.00;;;1.40;;
65182;SDS011;51771;51.068;-1.780;2023-08-30T03:43:05;4.18;;;1.42;;
65182;SDS011;51771;51.068;-1.780;2023-08-30T03:45:34;4.37;;;1.33;;
65182;SDS011;51771;51.068;-1.780;2023-08-30T03:47:59;4.30;;;1.30;;
65182;SDS011;51771;51.068;-1.780;2023-08-30T03:50:24;8.05;;;1.40;;
65182;SDS011;51771;51.068;-1.780;2023-08-30T03:52:49;5.07;;;1.30;;
65182;SDS011;51771;51.068;-1.780;2023-08-30T03:55:15;4.20;;;1.40;;
65182;SDS011;51771;51.068;-1.780;2023-08-30T03:57:40;4.18;;;1.52;;
65182;SDS011;51771;51.068;-1.780;2023-08-30T04:00:05;3.53;;;1.33;;
65182;SDS011;51771;51.068;-1.780;2023-08-30T04:02:30;4.22;;;1.58;;
65182;SDS011;51771;51.068;-1.780;2023-08-30T04:04:55;3.30;;;1.23;;
65182;SDS011;51771;51.068;-1.780;2023-08-30T04:07:21;8.13;;;1.80;;
65182;SDS011;51771;51.068;-1.780;2023-08-30T04:09:46;4.70;;;2.60;;
65182;SDS011;51771;51.068;-1.780;2023-08-30T04:12:11;4.03;;;1.30;;
65182;SDS011;51771;51.068;-1.780;2023-08-30T04:14:36;6.13;;;1.70;;
65182;SDS011;51771;51.068;-1.780;2023-08-30T04:17:02;4.60;;;1.30;;
65182;SDS011;51771;51.068;-1.780;2023-08-30T04:19:27;7.68;;;1.70;;
65182;SDS011;51771;51.068;-1.780;2023-08-30T04:21:52;4.63;;;1.40;;
65182;SDS011;51771;51.068;-1.780;2023-08-30T04:24:18;3.23;;;1.30;;
65182;SDS011;51771;51.068;-1.780;2023-08-30T04:26:43;8.65;;;1.80;;
65182;SDS011;51771;51.068;-1.780;2023-08-30T04:29:08;5.60;;;1.53;;
65182;SDS011;51771;51.068;-1.780;2023-08-30T04:31:33;3.97;;;1.63;;
65182;SDS011;51771;51.068;-1.780;2023-08-30T04:33:59;4.60;;;1.50;;
65182;SDS011;51771;51.068;-1.780;2023-08-30T04:36:24;6.75;;;1.90;;
65182;SDS011;51771;51.068;-1.780;2023-08-30T04:38:49;6.28;;;1.67;;
65182;SDS011;51771;51.068;-1.780;2023-08-30T04:41:14;5.03;;;1.67;;
65182;SDS011;51771;51.068;-1.780;2023-08-30T04:43:40;4.20;;;1.40;;
65182;SDS011;51771;51.068;-1.780;2023-08-30T04:46:05;5.20;;;1.92;;
65182;SDS011;51771;51.068;-1.780;2023-08-30T04:48:30;4.90;;;1.60;;
65182;SDS011;51771;51.068;-1.780;2023-08-30T04:51:00;4.90;;;1.40;;
65182;SDS011;51771;51.068;-1.780;2023-08-30T04:53:25;3.80;;;1.55;;
65182;SDS011;51771;51.068;-1.780;2023-08-30T04:55:50;3.20;;;1.20;;
65182;SDS011;51771;51.068;-1.780;2023-08-30T04:58:16;4.03;;;1.30;;
65182;SDS011;51771;51.068;-1.780;2023-08-30T05:00:41;5.67;;;1.57;;
65182;SDS011;51771;51.068;-1.780;2023-08-30T05:03:06;6.50;;;1.40;;
65182;SDS011;51771;51.068;-1.780;2023-08-30T05:05:31;4.13;;;1.23;;
65182;SDS011;51771;51.068;-1.780;2023-08-30T05:07:57;4.50;;;1.67;;
65182;SDS011;51771;51.068;-1.780;2023-08-30T05:10:22;6.13;;;1.60;;
65182;SDS011;51771;51.068;-1.780;2023-08-30T05:12:47;6.37;;;1.60;;
65182;SDS011;51771;51.068;-1.780;2023-08-30T05:15:16;6.07;;;1.73;;
65182;SDS011;51771;51.068;-1.780;2023-08-30T05:17:41;4.23;;;1.50;;
65182;SDS011;51771;51.068;-1.780;2023-08-30T05:20:07;7.32;;;1.70;;
65182;SDS011;51771;51.068;-1.780;2023-08-30T05:22:32;5.65;;;1.30;;
65182;SDS011;51771;51.068;-1.780;2023-08-30T05:24:57;3.67;;;1.17;;
65182;SDS011;51771;51.068;-1.780;2023-08-30T05:27:23;3.67;;;1.45;;
65182;SDS011;51771;51.068;-1.780;2023-08-30T05:29:50;5.18;;;1.55;;
65182;SDS011;51771;51.068;-1.780;2023-08-30T05:32:16;8.27;;;1.50;;
65182;SDS011;51771;51.068;-1.780;2023-08-30T05:34:41;5.05;;;1.75;;
65182;SDS011;51771;51.068;-1.780;2023-08-30T05:37:06;5.40;;;1.30;;
65182;SDS011;51771;51.068;-1.780;2023-08-30T05:39:31;8.82;;;2.15;;
65182;SDS011;51771;51.068;-1.780;2023-08-30T05:41:57;8.55;;;1.83;;
65182;SDS011;51771;51.068;-1.780;2023-08-30T05:44:22;6.65;;;1.90;;
65182;SDS011;51771;51.068;-1.780;2023-08-30T05:46:47;7.93;;;1.95;;
65182;SDS011;51771;51.068;-1.780;2023-08-30T05:49:12;5.25;;;1.63;;
65182;SDS011;51771;51.068;-1.780;2023-08-30T05:51:38;5.47;;;1.70;;
65182;SDS011;51771;51.068;-1.780;2023-08-30T05:54:03;5.03;;;1.40;;
65182;SDS011;51771;51.068;-1.780;2023-08-30T05:56:28;8.02;;;2.08;;
65182;SDS011;51771;51.068;-1.780;2023-08-30T05:58:54;4.85;;;1.95;;
65182;SDS011;51771;51.068;-1.780;2023-08-30T06:01:19;10.33;;;2.37;;
65182;SDS011;51771;51.068;-1.780;2023-08-30T06:03:44;6.07;;;1.85;;
65182;SDS011;51771;51.068;-1.780;2023-08-30T06:06:11;9.45;;;2.50;;
65182;SDS011;51771;51.068;-1.780;2023-08-30T06:08:36;6.00;;;1.70;;
65182;SDS011;51771;51.068;-1.780;2023-08-30T06:11:01;5.55;;;2.38;;
65182;SDS011;51771;51.068;-1.780;2023-08-30T06:13:26;9.47;;;3.13;;
65182;SDS011;51771;51.068;-1.780;2023-08-30T06:15:51;7.15;;;1.92;;
65182;SDS011;51771;51.068;-1.780;2023-08-30T06:18:17;8.75;;;1.60;;
65182;SDS011;51771;51.068;-1.780;2023-08-30T06:20:42;9.00;;;1.88;;
65182;SDS011;51771;51.068;-1.780;2023-08-30T06:23:07;6.60;;;2.50;;
65182;SDS011;51771;51.068;-1.780;2023-08-30T06:25:33;5.03;;;1.40;;
65182;SDS011;51771;51.068;-1.780;2023-08-30T06:27:58;9.67;;;2.20;;
65182;SDS011;51771;51.068;-1.780;2023-08-30T06:30:25;5.20;;;1.92;;
65182;SDS011;51771;51.068;-1.780;2023-08-30T06:32:50;5.88;;;1.70;;
65182;SDS011;51771;51.068;-1.780;2023-08-30T06:35:17;5.03;;;1.73;;
65182;SDS011;51771;51.068;-1.780;2023-08-30T06:40:08;4.10;;;1.50;;
65182;SDS011;51771;51.068;-1.780;2023-08-30T06:42:33;7.47;;;1.90;;
65182;SDS011;51771;51.068;-1.780;2023-08-30T06:44:58;5.72;;;2.05;;
65182;SDS011;51771;51.068;-1.780;2023-08-30T06:47:24;5.17;;;2.07;;
65182;SDS011;51771;51.068;-1.780;2023-08-30T06:49:49;6.80;;;2.40;;
65182;SDS011;51771;51.068;-1.780;2023-08-30T06:52:14;5.07;;;2.10;;
65182;SDS011;51771;51.068;-1.780;2023-08-30T06:54:40;4.90;;;1.50;;
65182;SDS011;51771;51.068;-1.780;2023-08-30T06:57:05;7.82;;;1.73;;
65182;SDS011;51771;51.068;-1.780;2023-08-30T06:59:32;5.28;;;1.65;;
65182;SDS011;51771;51.068;-1.780;2023-08-30T07:01:57;4.40;;;1.50;;
65182;SDS011;51771;51.068;-1.780;2023-08-30T07:04:22;6.50;;;1.67;;
65182;SDS011;51771;51.068;-1.780;2023-08-30T07:06:47;5.22;;;1.88;;
65182;SDS011;51771;51.068;-1.780;2023-08-30T07:09:13;6.40;;;1.83;;
65182;SDS011;51771;51.068;-1.780;2023-08-30T07:11:39;4.93;;;1.88;;
65182;SDS011;51771;51.068;-1.780;2023-08-30T07:14:04;5.45;;;1.83;;
65182;SDS011;51771;51.068;-1.780;2023-08-30T07:16:30;8.88;;;1.90;;
65182;SDS011;51771;51.068;-1.780;2023-08-30T07:18:56;5.13;;;1.80;;
65182;SDS011;51771;51.068;-1.780;2023-08-30T07:21:21;6.38;;;2.17;;
65182;SDS011;51771;51.068;-1.780;2023-08-30T07:23:47;4.53;;;1.45;;
65182;SDS011;51771;51.068;-1.780;2023-08-30T07:26:12;7.73;;;1.73;;
65182;SDS011;51771;51.068;-1.780;2023-08-30T07:28:37;5.47;;;1.60;;
65182;SDS011;51771;51.068;-1.780;2023-08-30T07:31:03;5.70;;;1.83;;
65182;SDS011;51771;51.068;-1.780;2023-08-30T07:33:28;6.18;;;1.55;;
65182;SDS011;51771;51.068;-1.780;2023-08-30T07:35:54;4.78;;;1.30;;
65182;SDS011;51771;51.068;-1.780;2023-08-30T07:38:19;7.75;;;1.45;;
65182;SDS011;51771;51.068;-1.780;2023-08-30T07:40:44;5.10;;;1.70;;
65182;SDS011;51771;51.068;-1.780;2023-08-30T07:43:10;7.20;;;1.97;;
65182;SDS011;51771;51.068;-1.780;2023-08-30T07:45:35;4.95;;;1.63;;
65182;SDS011;51771;51.068;-1.780;2023-08-30T07:48:00;7.30;;;1.83;;
65182;SDS011;51771;51.068;-1.780;2023-08-30T07:50:25;6.85;;;1.52;;
65182;SDS011;51771;51.068;-1.780;2023-08-30T07:52:51;6.03;;;1.40;;
65182;SDS011;51771;51.068;-1.780;2023-08-30T07:55:16;10.07;;;1.85;;
65182;SDS011;51771;51.068;-1.780;2023-08-30T07:57:41;4.32;;;1.30;;
65182;SDS011;51771;51.068;-1.780;2023-08-30T08:00:06;4.97;;;1.40;;
65182;SDS011;51771;51.068;-1.780;2023-08-30T08:02:32;7.60;;;1.50;;
65182;SDS011;51771;51.068;-1.780;2023-08-30T08:04:58;5.22;;;1.40;;
65182;SDS011;51771;51.068;-1.780;2023-08-30T08:07:23;5.03;;;1.50;;
65182;SDS011;51771;51.068;-1.780;2023-08-30T08:09:49;4.68;;;1.40;;
65182;SDS011;51771;51.068;-1.780;2023-08-30T08:12:14;6.45;;;1.35;;
65182;SDS011;51771;51.068;-1.780;2023-08-30T08:14:39;5.65;;;1.60;;
65182;SDS011;51771;51.068;-1.780;2023-08-30T08:17:05;6.23;;;1.70;;
65182;SDS011;51771;51.068;-1.780;2023-08-30T08:19:30;7.85;;;1.30;;
65182;SDS011;51771;51.068;-1.780;2023-08-30T08:21:55;4.43;;;1.40;;
65182;SDS011;51771;51.068;-1.780;2023-08-30T08:24:20;6.50;;;1.65;;
65182;SDS011;51771;51.068;-1.780;2023-08-30T08:26:46;5.63;;;1.35;;
65182;SDS011;51771;51.068;-1.780;2023-08-30T08:29:11;10.50;;;2.00;;
65182;SDS011;51771;51.068;-1.780;2023-08-30T08:31:37;6.68;;;1.83;;
65182;SDS011;51771;51.068;-1.780;2023-08-30T08:34:09;4.60;;;1.13;;
65182;SDS011;51771;51.068;-1.780;2023-08-30T08:36:35;5.50;;;1.60;;
65182;SDS011;51771;51.068;-1.780;2023-08-30T08:39:00;6.45;;;1.48;;
65182;SDS011;51771;51.068;-1.780;2023-08-30T08:41:27;5.07;;;1.63;;
65182;SDS011;51771;51.068;-1.780;2023-08-30T08:43:56;8.02;;;1.48;;
65182;SDS011;51771;51.068;-1.780;2023-08-30T08:46:22;5.22;;;1.42;;
65182;SDS011;51771;51.068;-1.780;2023-08-30T08:48:47;3.47;;;1.13;;
65182;SDS011;51771;51.068;-1.780;2023-08-30T08:51:14;5.15;;;1.10;;
65182;SDS011;51771;51.068;-1.780;2023-08-30T08:53:40;5.10;;;1.10;;
65182;SDS011;51771;51.068;-1.780;2023-08-30T08:56:06;8.45;;;1.40;;
65182;SDS011;51771;51.068;-1.780;2023-08-30T08:58:33;3.55;;;1.00;;
65182;SDS011;51771;51.068;-1.780;2023-08-30T09:00:59;5.65;;;1.20;;
65182;SDS011;51771;51.068;-1.780;2023-08-30T09:03:24;4.20;;;1.10;;
65182;SDS011;51771;51.068;-1.780;2023-08-30T09:05:50;3.97;;;1.00;;
65182;SDS011;51771;51.068;-1.780;2023-08-30T09:08:16;6.60;;;1.33;;
65182;SDS011;51771;51.068;-1.780;2023-08-30T09:10:41;5.10;;;1.27;;
65182;SDS011;51771;51.068;-1.780;2023-08-30T09:13:07;3.88;;;1.35;;
65182;SDS011;51771;51.068;-1.780;2023-08-30T09:15:33;3.50;;;1.10;;
65182;SDS011;51771;51.068;-1.780;2023-08-30T09:17:58;3.03;;;0.90;;
65182;SDS011;51771;51.068;-1.780;2023-08-30T09:20:24;5.57;;;1.30;;
65182;SDS011;51771;51.068;-1.780;2023-08-30T09:22:49;2.28;;;0.82;;
65182;SDS011;51771;51.068;-1.780;2023-08-30T09:25:24;5.78;;;1.20;;
65182;SDS011;51771;51.068;-1.780;2023-08-30T09:27:50;2.75;;;0.75;;
65182;SDS011;51771;51.068;-1.780;2023-08-30T09:30:20;2.72;;;0.68;;
65182;SDS011;51771;51.068;-1.780;2023-08-30T09:32:46;3.88;;;1.27;;
65182;SDS011;51771;51.068;-1.780;2023-08-30T09:35:11;4.47;;;1.20;;
65182;SDS011;51771;51.068;-1.780;2023-08-30T09:37:36;3.08;;;0.90;;
65182;SDS011;51771;51.068;-1.780;2023-08-30T09:40:02;2.90;;;0.80;;
65182;SDS011;51771;51.068;-1.780;2023-08-30T09:42:28;5.00;;;1.08;;
65182;SDS011;51771;51.068;-1.780;2023-08-30T09:44:53;2.97;;;0.80;;
65182;SDS011;51771;51.068;-1.780;2023-08-30T09:47:19;3.37;;;0.90;;
65182;SDS011;51771;51.068;-1.780;2023-08-30T09:49:44;3.83;;;1.03;;
65182;SDS011;51771;51.068;-1.780;2023-08-30T09:52:14;4.00;;;1.00;;
65182;SDS011;51771;51.068;-1.780;2023-08-30T09:54:39;3.35;;;0.70;;
65182;SDS011;51771;51.068;-1.780;2023-08-30T09:57:06;3.42;;;0.90;;
65182;SDS011;51771;51.068;-1.780;2023-08-30T09:59:32;3.10;;;1.27;;
65182;SDS011;51771;51.068;-1.780;2023-08-30T10:01:57;3.47;;;0.90;;
65182;SDS011;51771;51.068;-1.780;2023-08-30T10:04:25;4.55;;;0.98;;
65182;SDS011;51771;51.068;-1.780;2023-08-30T10:06:51;6.25;;;1.15;;
65182;SDS011;51771;51.068;-1.780;2023-08-30T10:09:16;2.92;;;0.90;;
65182;SDS011;51771;51.068;-1.780;2023-08-30T10:11:43;3.80;;;1.25;;
65182;SDS011;51771;51.068;-1.780;2023-08-30T10:14:09;2.88;;;0.90;;
65182;SDS011;51771;51.068;-1.780;2023-08-30T10:16:48;2.35;;;0.90;;
65182;SDS011;51771;51.068;-1.780;2023-08-30T10:19:17;4.18;;;1.08;;
65182;SDS011;51771;51.068;-1.780;2023-08-30T10:21:48;4.85;;;1.20;;
65182;SDS011;51771;51.068;-1.780;2023-08-30T10:24:19;3.25;;;0.95;;
65182;SDS011;51771;51.068;-1.780;2023-08-30T10:26:45;2.90;;;0.90;;
65182;SDS011;51771;51.068;-1.780;2023-08-30T10:29:12;4.10;;;1.20;;
65182;SDS011;51771;51.068;-1.780;2023-08-30T10:31:38;3.72;;;0.90;;
65182;SDS011;51771;51.068;-1.780;2023-08-30T10:34:11;2.72;;;0.90;;
65182;SDS011;51771;51.068;-1.780;2023-08-30T10:36:36;3.78;;;1.10;;
65182;SDS011;51771;51.068;-1.780;2023-08-30T10:39:02;4.43;;;1.13;;
65182;SDS011;51771;51.068;-1.780;2023-08-30T10:41:35;4.95;;;1.50;;
65182;SDS011;51771;51.068;-1.780;2023-08-30T10:44:01;4.77;;;1.00;;
65182;SDS011;51771;51.068;-1.780;2023-08-30T10:46:32;4.18;;;1.02;;
65182;SDS011;51771;51.068;-1.780;2023-08-30T10:49:13;4.03;;;1.20;;
65182;SDS011;51771;51.068;-1.780;2023-08-30T10:51:39;4.47;;;1.05;;
65182;SDS011;51771;51.068;-1.780;2023-08-30T10:54:11;4.38;;;1.25;;
65182;SDS011;51771;51.068;-1.780;2023-08-30T10:56:45;3.20;;;1.08;;
65182;SDS011;51771;51.068;-1.780;2023-08-30T10:59:15;3.03;;;1.02;;
65182;SDS011;51771;51.068;-1.780;2023-08-30T11:01:40;2.25;;;0.80;;
65182;SDS011;51771;51.068;-1.780;2023-08-30T11:04:06;3.23;;;0.90;;
65182;SDS011;51771;51.068;-1.780;2023-08-30T11:06:31;4.15;;;0.88;;
65182;SDS011;51771;51.068;-1.780;2023-08-30T11:08:56;3.70;;;1.00;;
65182;SDS011;51771;51.068;-1.780;2023-08-30T11:11:21;3.37;;;1.13;;
65182;SDS011;51771;51.068;-1.780;2023-08-30T11:13:47;2.85;;;0.90;;
65182;SDS011;51771;51.068;-1.780;2023-08-30T11:16:12;3.35;;;1.02;;
65182;SDS011;51771;51.068;-1.780;2023-08-30T11:18:37;2.53;;;0.90;;
65182;SDS011;51771;51.068;-1.780;2023-08-30T11:21:07;2.92;;;0.90;;
65182;SDS011;51771;51.068;-1.780;2023-08-30T11:23:34;4.15;;;0.98;;
65182;SDS011;51771;51.068;-1.780;2023-08-30T11:25:59;3.30;;;0.90;;
65182;SDS011;51771;51.068;-1.780;2023-08-30T11:28:25;2.67;;;0.80;;
65182;SDS011;51771;51.068;-1.780;2023-08-30T11:30:54;3.27;;;1.13;;
65182;SDS011;51771;51.068;-1.780;2023-08-30T11:33:19;2.03;;;0.80;;
65182;SDS011;51771;51.068;-1.780;2023-08-30T11:35:44;2.58;;;0.80;;
65182;SDS011;51771;51.068;-1.780;2023-08-30T11:38:10;4.57;;;1.10;;
65182;SDS011;51771;51.068;-1.780;2023-08-30T11:40:35;4.93;;;0.85;;
65182;SDS011;51771;51.068;-1.780;2023-08-30T11:43:01;2.23;;;0.80;;
65182;SDS011;51771;51.068;-1.780;2023-08-30T11:45:27;2.38;;;0.75;;
65182;SDS011;51771;51.068;-1.780;2023-08-30T11:47:53;3.47;;;1.13;;
65182;SDS011;51771;51.068;-1.780;2023-08-30T11:50:18;4.57;;;0.98;;
65182;SDS011;51771;51.068;-1.780;2023-08-30T11:52:45;4.40;;;0.77;;
65182;SDS011;51771;51.068;-1.780;2023-08-30T11:55:10;2.85;;;0.70;;
65182;SDS011;51771;51.068;-1.780;2023-08-30T11:57:37;3.15;;;1.17;;
65182;SDS011;51771;51.068;-1.780;2023-08-30T12:00:11;2.58;;;0.90;;
65182;SDS011;51771;51.068;-1.780;2023-08-30T12:02:37;3.83;;;0.85;;
65182;SDS011;51771;51.068;-1.780;2023-08-30T12:05:03;2.47;;;0.77;;
65182;SDS011;51771;51.068;-1.780;2023-08-30T12:07:29;4.15;;;0.90;;
65182;SDS011;51771;51.068;-1.780;2023-08-30T12:10:04;1.70;;;0.60;;
65182;SDS011;51771;51.068;-1.780;2023-08-30T12:12:30;2.85;;;0.90;;
65182;SDS011;51771;51.068;-1.780;2023-08-30T12:14:55;4.53;;;1.07;;
65182;SDS011;51771;51.068;-1.780;2023-08-30T12:17:23;3.28;;;1.00;;
65182;SDS011;51771;51.068;-1.780;2023-08-30T12:19:55;4.18;;;1.20;;
65182;SDS011;51771;51.068;-1.780;2023-08-30T12:22:21;4.97;;;1.25;;
65182;SDS011;51771;51.068;-1.780;2023-08-30T12:24:46;2.43;;;0.93;;
65182;SDS011;51771;51.068;-1.780;2023-08-30T12:27:12;2.92;;;0.90;;
65182;SDS011;51771;51.068;-1.780;2023-08-30T12:29:37;3.80;;;1.13;;
65182;SDS011;51771;51.068;-1.780;2023-08-30T12:32:02;3.28;;;0.93;;
65182;SDS011;51771;51.068;-1.780;2023-08-30T12:34:28;4.32;;;0.93;;
65182;SDS011;51771;51.068;-1.780;2023-08-30T12:36:53;3.53;;;0.93;;
65182;SDS011;51771;51.068;-1.780;2023-08-30T12:39:18;1.35;;;0.47;;
65182;SDS011;51771;51.068;-1.780;2023-08-30T12:41:44;2.27;;;0.87;;
65182;SDS011;51771;51.068;-1.780;2023-08-30T12:44:09;4.03;;;1.10;;
65182;SDS011;51771;51.068;-1.780;2023-08-30T12:46:34;3.27;;;0.90;;
65182;SDS011;51771;51.068;-1.780;2023-08-30T12:48:59;3.45;;;0.93;;
65182;SDS011;51771;51.068;-1.780;2023-08-30T12:51:25;3.85;;;1.02;;
65182;SDS011;51771;51.068;-1.780;2023-08-30T12:53:50;3.07;;;0.97;;
65182;SDS011;51771;51.068;-1.780;2023-08-30T12:56:15;2.70;;;0.83;;
65182;SDS011;51771;51.068;-1.780;2023-08-30T12:58:40;4.13;;;1.00;;
65182;SDS011;51771;51.068;-1.780;2023-08-30T13:01:05;2.90;;;0.93;;
65182;SDS011;51771;51.068;-1.780;2023-08-30T13:03:31;3.93;;;0.97;;
65182;SDS011;51771;51.068;-1.780;2023-08-30T13:05:56;3.40;;;0.90;;
65182;SDS011;51771;51.068;-1.780;2023-08-30T13:08:23;2.78;;;1.10;;
65182;SDS011;51771;51.068;-1.780;2023-08-30T13:10:48;4.43;;;1.20;;
65182;SDS011;51771;51.068;-1.780;2023-08-30T13:13:14;4.32;;;1.20;;
65182;SDS011;51771;51.068;-1.780;2023-08-30T13:15:39;4.03;;;1.08;;
65182;SDS011;51771;51.068;-1.780;2023-08-30T13:18:04;3.57;;;1.30;;
65182;SDS011;51771;51.068;-1.780;2023-08-30T13:20:30;2.87;;;1.00;;
65182;SDS011;51771;51.068;-1.780;2023-08-30T13:22:55;2.93;;;1.00;;
65182;SDS011;51771;51.068;-1.780;2023-08-30T13:25:20;4.53;;;0.93;;
65182;SDS011;51771;51.068;-1.780;2023-08-30T13:27:45;3.97;;;1.00;;
65182;SDS011;51771;51.068;-1.780;2023-08-30T13:30:11;3.33;;;1.02;;
65182;SDS011;51771;51.068;-1.780;2023-08-30T13:32:37;3.28;;;1.10;;
65182;SDS011;51771;51.068;-1.780;2023-08-30T13:35:02;4.40;;;1.40;;
65182;SDS011;51771;51.068;-1.780;2023-08-30T13:37:27;5.40;;;1.23;;
65182;SDS011;51771;51.068;-1.780;2023-08-30T13:39:53;7.07;;;1.80;;
65182;SDS011;51771;51.068;-1.780;2023-08-30T13:42:19;3.13;;;1.30;;
65182;SDS011;51771;51.068;-1.780;2023-08-30T13:44:44;4.30;;;1.30;;
65182;SDS011;51771;51.068;-1.780;2023-08-30T13:47:10;3.00;;;1.20;;
65182;SDS011;51771;51.068;-1.780;2023-08-30T13:49:35;6.38;;;1.30;;
65182;SDS011;51771;51.068;-1.780;2023-08-30T13:52:01;3.67;;;1.17;;
65182;SDS011;51771;51.068;-1.780;2023-08-30T13:54:27;4.53;;;1.02;;
65182;SDS011;51771;51.068;-1.780;2023-08-30T13:56:54;3.47;;;1.15;;
65182;SDS011;51771;51.068;-1.780;2023-08-30T13:59:19;4.53;;;1.23;;
65182;SDS011;51771;51.068;-1.780;2023-08-30T14:01:45;4.40;;;1.20;;
65182;SDS011;51771;51.068;-1.780;2023-08-30T14:04:10;4.38;;;1.33;;
65182;SDS011;51771;51.068;-1.780;2023-08-30T14:06:35;3.17;;;1.20;;
65182;SDS011;51771;51.068;-1.780;2023-08-30T14:09:01;4.20;;;1.20;;
65182;SDS011;51771;51.068;-1.780;2023-08-30T14:11:26;3.30;;;1.10;;
65182;SDS011;51771;51.068;-1.780;2023-08-30T14:13:51;5.00;;;1.27;;
65182;SDS011;51771;51.068;-1.780;2023-08-30T14:16:16;4.00;;;1.30;;
65182;SDS011;51771;51.068;-1.780;2023-08-30T14:18:42;3.23;;;1.23;;
65182;SDS011;51771;51.068;-1.780;2023-08-30T14:21:07;3.35;;;1.00;;
65182;SDS011;51771;51.068;-1.780;2023-08-30T14:23:33;4.68;;;1.40;;
65182;SDS011;51771;51.068;-1.780;2023-08-30T14:25:59;5.00;;;1.30;;
65182;SDS011;51771;51.068;-1.780;2023-08-30T14:28:27;3.60;;;0.90;;
65182;SDS011;51771;51.068;-1.780;2023-08-30T14:30:53;4.38;;;0.88;;
65182;SDS011;51771;51.068;-1.780;2023-08-30T14:33:18;4.00;;;1.15;;